AFL1254 UACC-UTDD
Flight info
| Callsign | AFL1254 |
|---|---|
| Flight time | 2h 5m |
| Altitude | 36000 |
| Route | KOKON1B KOKON M75 AMIGU P178 TIMKA/K0817F370 M168 GENDI DCT DODUR DCT PF/K0815F360 A103 SX PUGU1E |
| Aircraft | A320/M-SDE3FGHIRWY/LB1 |
Departure
| Time | 2026-04-26 12:33 |
|---|---|
| Airport | Nursultan Nazarbayev International Airport (UACC) |
Arrival
| Time | 2026-04-26 14:38 |
|---|---|
| Airport | Dushanbe International Airport (UTDD) |
| Time | Latitude | Longitude | Altitude | Speed | Heading |
|---|---|---|---|---|---|
| 2026-04-26 12:01 | 51.02669 | 71.46218 | 1164 ft | 0 kts | 315° |
| 2026-04-26 12:21 | 51.02640 | 71.46264 | 1162 ft | 11 kts | 312° |
| 2026-04-26 12:22 | 51.02611 | 71.46306 | 1163 ft | 1 kts | 19° |
| 2026-04-26 12:22 | 51.02620 | 71.46327 | 1164 ft | 7 kts | 69° |
| 2026-04-26 12:22 | 51.02620 | 71.46334 | 1162 ft | 0 kts | 81° |
| 2026-04-26 12:23 | 51.02626 | 71.46374 | 1164 ft | 7 kts | 77° |
| 2026-04-26 12:23 | 51.02637 | 71.46444 | 1164 ft | 6 kts | 77° |
| 2026-04-26 12:23 | 51.02655 | 71.46487 | 1164 ft | 5 kts | 45° |
| 2026-04-26 12:23 | 51.02702 | 71.46551 | 1163 ft | 13 kts | 48° |
| 2026-04-26 12:24 | 51.02678 | 71.46672 | 1164 ft | 12 kts | 132° |
| 2026-04-26 12:24 | 51.02658 | 71.46774 | 1164 ft | 9 kts | 69° |
| 2026-04-26 12:24 | 51.02696 | 71.46843 | 1164 ft | 8 kts | 45° |
| 2026-04-26 12:25 | 51.02756 | 71.46934 | 1164 ft | 4 kts | 44° |
| 2026-04-26 12:25 | 51.02774 | 71.46962 | 1164 ft | 3 kts | 44° |
| 2026-04-26 12:25 | 51.02796 | 71.46995 | 1164 ft | 10 kts | 44° |
| 2026-04-26 12:25 | 51.02855 | 71.47091 | 1162 ft | 12 kts | 45° |
| 2026-04-26 12:26 | 51.02908 | 71.47173 | 1162 ft | 10 kts | 44° |
| 2026-04-26 12:26 | 51.02951 | 71.47241 | 1162 ft | 8 kts | 44° |
| 2026-04-26 12:26 | 51.02986 | 71.47294 | 1164 ft | 6 kts | 44° |
| 2026-04-26 12:26 | 51.03026 | 71.47356 | 1163 ft | 11 kts | 44° |
| 2026-04-26 12:27 | 51.03094 | 71.47459 | 1162 ft | 16 kts | 43° |
| 2026-04-26 12:27 | 51.03191 | 71.47601 | 1164 ft | 21 kts | 41° |
| 2026-04-26 12:27 | 51.03278 | 71.47745 | 1163 ft | 14 kts | 49° |
| 2026-04-26 12:27 | 51.03339 | 71.47844 | 1164 ft | 12 kts | 44° |
| 2026-04-26 12:28 | 51.03392 | 71.47927 | 1164 ft | 10 kts | 45° |
| 2026-04-26 12:28 | 51.03426 | 71.48007 | 1164 ft | 8 kts | 71° |
| 2026-04-26 12:28 | 51.03432 | 71.48082 | 1164 ft | 6 kts | 85° |
| 2026-04-26 12:28 | 51.03431 | 71.48141 | 1164 ft | 5 kts | 92° |
| 2026-04-26 12:29 | 51.03431 | 71.48151 | 1164 ft | 0 kts | 92° |
| 2026-04-26 12:31 | 51.03431 | 71.48156 | 1164 ft | 3 kts | 92° |
| 2026-04-26 12:31 | 51.03425 | 71.48249 | 1164 ft | 9 kts | 106° |
| 2026-04-26 12:31 | 51.03393 | 71.48315 | 1164 ft | 6 kts | 143° |
| 2026-04-26 12:31 | 51.03358 | 71.48325 | 1164 ft | 6 kts | 190° |
| 2026-04-26 12:32 | 51.03242 | 71.48170 | 1163 ft | 54 kts | 225° |
| 2026-04-26 12:32 | 51.02814 | 71.47491 | 1166 ft | 117 kts | 225° |
| 2026-04-26 12:32 | 51.01278 | 71.45058 | 1702 ft | 169 kts | 229° |
| 2026-04-26 12:33 | 51.00439 | 71.43754 | 2404 ft | 169 kts | 230° |
| 2026-04-26 12:33 | 50.99563 | 71.42386 | 2761 ft | 187 kts | 230° |
| 2026-04-26 12:33 | 50.98601 | 71.40877 | 3015 ft | 207 kts | 230° |
| 2026-04-26 12:33 | 50.97524 | 71.39189 | 3298 ft | 230 kts | 230° |
| 2026-04-26 12:34 | 50.96332 | 71.37324 | 3778 ft | 247 kts | 230° |
| 2026-04-26 12:34 | 50.95091 | 71.35406 | 4503 ft | 252 kts | 230° |
| 2026-04-26 12:34 | 50.93826 | 71.33458 | 5341 ft | 254 kts | 230° |
| 2026-04-26 12:34 | 50.92551 | 71.31500 | 6151 ft | 257 kts | 230° |
| 2026-04-26 12:35 | 50.91262 | 71.29516 | 6961 ft | 259 kts | 230° |
| 2026-04-26 12:35 | 50.89967 | 71.27518 | 7771 ft | 261 kts | 230° |
| 2026-04-26 12:35 | 50.88665 | 71.25505 | 8546 ft | 263 kts | 230° |
| 2026-04-26 12:35 | 50.87370 | 71.23499 | 9307 ft | 265 kts | 229° |
| 2026-04-26 12:36 | 50.86048 | 71.21450 | 10081 ft | 267 kts | 228° |
| 2026-04-26 12:36 | 50.84681 | 71.19335 | 10471 ft | 285 kts | 228° |
| 2026-04-26 12:36 | 50.83218 | 71.17065 | 10760 ft | 302 kts | 227° |
| 2026-04-26 12:36 | 50.81694 | 71.14716 | 11419 ft | 307 kts | 227° |
| 2026-04-26 12:37 | 50.80162 | 71.12361 | 12186 ft | 307 kts | 226° |
| 2026-04-26 12:37 | 50.78626 | 71.10011 | 12960 ft | 307 kts | 226° |
| 2026-04-26 12:37 | 50.77090 | 71.07659 | 13654 ft | 308 kts | 226° |
| 2026-04-26 12:37 | 50.75545 | 71.05290 | 14323 ft | 310 kts | 226° |
| 2026-04-26 12:38 | 50.73994 | 71.02914 | 14983 ft | 311 kts | 226° |
| 2026-04-26 12:38 | 50.72437 | 71.00527 | 15613 ft | 313 kts | 226° |
| 2026-04-26 12:38 | 50.70888 | 70.98156 | 16235 ft | 315 kts | 225° |
| 2026-04-26 12:38 | 50.69171 | 70.95988 | 16821 ft | 320 kts | 216° |
| 2026-04-26 12:39 | 50.67292 | 70.94097 | 17428 ft | 322 kts | 216° |
| 2026-04-26 12:39 | 50.65400 | 70.92190 | 17994 ft | 323 kts | 216° |
| 2026-04-26 12:39 | 50.63503 | 70.90277 | 18570 ft | 325 kts | 216° |
| 2026-04-26 12:39 | 50.61593 | 70.88352 | 19119 ft | 326 kts | 216° |
| 2026-04-26 12:40 | 50.59672 | 70.86420 | 19644 ft | 329 kts | 216° |
| 2026-04-26 12:40 | 50.57740 | 70.84481 | 20164 ft | 331 kts | 216° |
| 2026-04-26 12:40 | 50.55788 | 70.82520 | 20684 ft | 334 kts | 216° |
| 2026-04-26 12:40 | 50.53829 | 70.80549 | 21185 ft | 336 kts | 216° |
| 2026-04-26 12:41 | 50.51880 | 70.78595 | 21667 ft | 338 kts | 216° |
| 2026-04-26 12:41 | 50.49886 | 70.76602 | 22151 ft | 340 kts | 216° |
| 2026-04-26 12:41 | 50.47881 | 70.74598 | 22614 ft | 343 kts | 215° |
| 2026-04-26 12:41 | 50.45863 | 70.72585 | 23061 ft | 345 kts | 216° |
| 2026-04-26 12:42 | 50.43832 | 70.70556 | 23495 ft | 347 kts | 215° |
| 2026-04-26 12:42 | 50.41786 | 70.68516 | 23924 ft | 350 kts | 215° |
| 2026-04-26 12:42 | 50.39724 | 70.66461 | 24331 ft | 352 kts | 215° |
| 2026-04-26 12:42 | 50.37683 | 70.64429 | 24716 ft | 354 kts | 215° |
| 2026-04-26 12:43 | 50.35595 | 70.62356 | 25101 ft | 356 kts | 215° |
| 2026-04-26 12:43 | 50.33497 | 70.60273 | 25475 ft | 358 kts | 215° |
| 2026-04-26 12:43 | 50.31392 | 70.58185 | 25826 ft | 360 kts | 215° |
| 2026-04-26 12:43 | 50.29274 | 70.56083 | 26165 ft | 362 kts | 215° |
| 2026-04-26 12:44 | 50.27143 | 70.53973 | 26505 ft | 363 kts | 215° |
| 2026-04-26 12:44 | 50.25000 | 70.51853 | 26821 ft | 365 kts | 215° |
| 2026-04-26 12:44 | 50.22846 | 70.49727 | 27153 ft | 367 kts | 214° |
| 2026-04-26 12:44 | 50.20683 | 70.47599 | 27460 ft | 369 kts | 214° |
| 2026-04-26 12:45 | 50.18535 | 70.45486 | 27760 ft | 371 kts | 214° |
| 2026-04-26 12:45 | 50.16356 | 70.43325 | 28073 ft | 372 kts | 216° |
| 2026-04-26 12:45 | 50.14224 | 70.41024 | 28372 ft | 373 kts | 218° |
| 2026-04-26 12:45 | 50.12141 | 70.38605 | 28653 ft | 374 kts | 219° |
| 2026-04-26 12:46 | 50.10079 | 70.36122 | 28934 ft | 375 kts | 219° |
| 2026-04-26 12:46 | 50.08015 | 70.33622 | 29203 ft | 377 kts | 219° |
| 2026-04-26 12:46 | 50.05934 | 70.31123 | 29453 ft | 378 kts | 219° |
| 2026-04-26 12:46 | 50.03836 | 70.28635 | 29705 ft | 380 kts | 218° |
| 2026-04-26 12:47 | 50.01720 | 70.26160 | 29954 ft | 381 kts | 218° |
| 2026-04-26 12:47 | 49.99621 | 70.23725 | 30193 ft | 382 kts | 218° |
| 2026-04-26 12:47 | 49.97484 | 70.21258 | 30417 ft | 384 kts | 218° |
| 2026-04-26 12:47 | 49.95333 | 70.18778 | 30609 ft | 386 kts | 218° |
| 2026-04-26 12:48 | 49.93172 | 70.16286 | 30818 ft | 387 kts | 218° |
| 2026-04-26 12:48 | 49.91008 | 70.13792 | 31089 ft | 387 kts | 218° |
| 2026-04-26 12:48 | 49.88847 | 70.11306 | 31346 ft | 387 kts | 218° |
| 2026-04-26 12:48 | 49.86683 | 70.08817 | 31604 ft | 387 kts | 218° |
| 2026-04-26 12:49 | 49.84522 | 70.06331 | 31856 ft | 387 kts | 218° |
| 2026-04-26 12:49 | 49.82384 | 70.03875 | 32098 ft | 388 kts | 218° |
| 2026-04-26 12:49 | 49.80220 | 70.01391 | 32339 ft | 388 kts | 218° |
| 2026-04-26 12:49 | 49.78053 | 69.98902 | 32586 ft | 388 kts | 218° |
| 2026-04-26 12:50 | 49.75881 | 69.96415 | 32819 ft | 388 kts | 218° |
| 2026-04-26 12:50 | 49.73712 | 69.93929 | 33054 ft | 388 kts | 219° |
| 2026-04-26 12:50 | 49.71538 | 69.91436 | 33285 ft | 389 kts | 218° |
| 2026-04-26 12:50 | 49.69371 | 69.88955 | 33528 ft | 389 kts | 219° |
| 2026-04-26 12:51 | 49.67222 | 69.86502 | 33738 ft | 389 kts | 219° |
| 2026-04-26 12:51 | 49.65756 | 69.84830 | 33897 ft | 389 kts | 219° |
| 2026-04-26 12:51 | 49.62869 | 69.81546 | 34199 ft | 389 kts | 219° |
| 2026-04-26 12:51 | 49.60691 | 69.79072 | 34433 ft | 389 kts | 219° |
| 2026-04-26 12:52 | 49.58514 | 69.76603 | 34644 ft | 389 kts | 218° |
| 2026-04-26 12:52 | 49.56332 | 69.74135 | 34839 ft | 389 kts | 218° |
| 2026-04-26 12:52 | 49.54154 | 69.71671 | 35026 ft | 389 kts | 219° |
| 2026-04-26 12:52 | 49.51975 | 69.69199 | 35210 ft | 389 kts | 219° |
| 2026-04-26 12:53 | 49.49796 | 69.66727 | 35380 ft | 390 kts | 219° |
| 2026-04-26 12:53 | 49.47639 | 69.64286 | 35552 ft | 390 kts | 218° |
| 2026-04-26 12:53 | 49.45459 | 69.61821 | 35735 ft | 390 kts | 218° |
| 2026-04-26 12:53 | 49.43274 | 69.59357 | 35904 ft | 389 kts | 218° |
| 2026-04-26 12:54 | 49.41087 | 69.56901 | 36033 ft | 390 kts | 218° |
| 2026-04-26 12:54 | 49.36725 | 69.52012 | 36071 ft | 387 kts | 218° |
| 2026-04-26 12:55 | 49.32373 | 69.47143 | 36073 ft | 387 kts | 218° |
| 2026-04-26 12:55 | 49.27860 | 69.42756 | 36072 ft | 391 kts | 206° |
| 2026-04-26 12:56 | 49.22528 | 69.40754 | 36082 ft | 398 kts | 194° |
| 2026-04-26 12:56 | 49.17043 | 69.39406 | 36081 ft | 399 kts | 194° |
| 2026-04-26 12:57 | 49.11568 | 69.38053 | 36077 ft | 399 kts | 195° |
| 2026-04-26 12:57 | 49.06127 | 69.36712 | 36078 ft | 399 kts | 195° |
| 2026-04-26 12:58 | 48.97920 | 69.34665 | 36083 ft | 398 kts | 195° |
| 2026-04-26 12:58 | 48.92450 | 69.33302 | 36088 ft | 398 kts | 195° |
| 2026-04-26 12:59 | 48.86983 | 69.31957 | 36092 ft | 398 kts | 195° |
| 2026-04-26 12:59 | 48.81551 | 69.30614 | 36094 ft | 398 kts | 195° |
| 2026-04-26 13:00 | 48.76081 | 69.29273 | 36098 ft | 399 kts | 195° |
| 2026-04-26 13:00 | 48.70607 | 69.27919 | 36107 ft | 399 kts | 195° |
| 2026-04-26 13:01 | 48.65129 | 69.26578 | 36112 ft | 398 kts | 195° |
| 2026-04-26 13:01 | 48.59656 | 69.25244 | 36118 ft | 398 kts | 195° |
| 2026-04-26 13:02 | 48.54217 | 69.23927 | 36115 ft | 398 kts | 195° |
| 2026-04-26 13:02 | 48.48745 | 69.22592 | 36117 ft | 398 kts | 195° |
| 2026-04-26 13:03 | 48.43276 | 69.21262 | 36117 ft | 398 kts | 195° |
| 2026-04-26 13:03 | 48.37812 | 69.19936 | 36124 ft | 398 kts | 195° |
| 2026-04-26 13:04 | 48.32375 | 69.18629 | 36126 ft | 398 kts | 195° |
| 2026-04-26 13:04 | 48.26911 | 69.17307 | 36134 ft | 398 kts | 195° |
| 2026-04-26 13:05 | 48.21448 | 69.15989 | 36142 ft | 398 kts | 195° |
| 2026-04-26 13:05 | 48.15990 | 69.14674 | 36144 ft | 397 kts | 195° |
| 2026-04-26 13:06 | 48.10525 | 69.13367 | 36145 ft | 398 kts | 195° |
| 2026-04-26 13:06 | 48.05100 | 69.12075 | 36146 ft | 398 kts | 195° |
| 2026-04-26 13:07 | 47.99631 | 69.10776 | 36147 ft | 398 kts | 195° |
| 2026-04-26 13:07 | 47.94171 | 69.09482 | 36154 ft | 398 kts | 195° |
| 2026-04-26 13:08 | 47.88707 | 69.08180 | 36158 ft | 397 kts | 195° |
| 2026-04-26 13:08 | 47.83252 | 69.06881 | 36161 ft | 397 kts | 195° |
| 2026-04-26 13:09 | 47.77830 | 69.05593 | 36161 ft | 397 kts | 195° |
| 2026-04-26 13:09 | 47.72376 | 69.04311 | 36162 ft | 397 kts | 195° |
| 2026-04-26 13:10 | 47.66926 | 69.03026 | 36161 ft | 396 kts | 195° |
| 2026-04-26 13:10 | 47.61480 | 69.01743 | 36159 ft | 396 kts | 195° |
| 2026-04-26 13:11 | 47.56075 | 69.00483 | 36155 ft | 396 kts | 195° |
| 2026-04-26 13:11 | 47.50640 | 68.99207 | 36152 ft | 395 kts | 195° |
| 2026-04-26 13:12 | 47.45209 | 68.97935 | 36149 ft | 395 kts | 195° |
| 2026-04-26 13:12 | 47.39771 | 68.96671 | 36148 ft | 395 kts | 195° |
| 2026-04-26 13:13 | 47.34331 | 68.95408 | 36151 ft | 396 kts | 195° |
| 2026-04-26 13:13 | 47.28927 | 68.94163 | 36151 ft | 396 kts | 195° |
| 2026-04-26 13:14 | 47.23483 | 68.92904 | 36157 ft | 396 kts | 195° |
| 2026-04-26 13:14 | 47.18044 | 68.91640 | 36159 ft | 395 kts | 195° |
| 2026-04-26 13:15 | 47.12605 | 68.90386 | 36164 ft | 396 kts | 195° |
| 2026-04-26 13:15 | 47.08090 | 68.89347 | 36165 ft | 395 kts | 195° |
| 2026-04-26 13:16 | 47.01781 | 68.87884 | 36163 ft | 395 kts | 195° |
| 2026-04-26 13:16 | 46.96360 | 68.86641 | 36163 ft | 394 kts | 195° |
| 2026-04-26 13:17 | 46.88224 | 68.84797 | 36162 ft | 394 kts | 195° |
| 2026-04-26 13:18 | 46.80134 | 68.82946 | 36160 ft | 394 kts | 195° |
| 2026-04-26 13:19 | 46.72012 | 68.81099 | 36160 ft | 394 kts | 195° |
| 2026-04-26 13:19 | 46.66597 | 68.79868 | 36158 ft | 394 kts | 195° |
| 2026-04-26 13:20 | 46.61223 | 68.78651 | 36158 ft | 394 kts | 195° |
| 2026-04-26 13:20 | 46.55812 | 68.77423 | 36159 ft | 394 kts | 195° |
| 2026-04-26 13:21 | 46.50399 | 68.76203 | 36161 ft | 394 kts | 195° |
| 2026-04-26 13:21 | 46.44987 | 68.74999 | 36164 ft | 393 kts | 195° |
| 2026-04-26 13:22 | 46.39615 | 68.73800 | 36165 ft | 393 kts | 195° |
| 2026-04-26 13:22 | 46.34212 | 68.72590 | 36167 ft | 393 kts | 195° |
| 2026-04-26 13:23 | 46.28816 | 68.71373 | 36167 ft | 392 kts | 195° |
| 2026-04-26 13:23 | 46.23420 | 68.70163 | 36165 ft | 393 kts | 195° |
| 2026-04-26 13:24 | 46.18930 | 68.69172 | 36163 ft | 393 kts | 195° |
| 2026-04-26 13:24 | 46.12648 | 68.67773 | 36161 ft | 393 kts | 195° |
| 2026-04-26 13:25 | 46.07243 | 68.66580 | 36159 ft | 393 kts | 195° |
| 2026-04-26 13:25 | 46.01837 | 68.65379 | 36158 ft | 393 kts | 195° |
| 2026-04-26 13:26 | 45.97347 | 68.64381 | 36158 ft | 393 kts | 195° |
| 2026-04-26 13:26 | 45.91066 | 68.63001 | 36157 ft | 393 kts | 195° |
| 2026-04-26 13:27 | 45.85664 | 68.61808 | 36157 ft | 393 kts | 195° |
| 2026-04-26 13:27 | 45.81170 | 68.60822 | 36154 ft | 393 kts | 195° |
| 2026-04-26 13:28 | 45.75762 | 68.59646 | 36154 ft | 393 kts | 195° |
| 2026-04-26 13:28 | 45.70349 | 68.58466 | 36156 ft | 393 kts | 195° |
| 2026-04-26 13:29 | 45.64064 | 68.57094 | 36155 ft | 393 kts | 195° |
| 2026-04-26 13:29 | 45.59568 | 68.56116 | 36154 ft | 393 kts | 195° |
| 2026-04-26 13:30 | 45.54161 | 68.54945 | 36156 ft | 393 kts | 195° |
| 2026-04-26 13:30 | 45.48750 | 68.53767 | 36158 ft | 394 kts | 194° |
| 2026-04-26 13:31 | 45.43332 | 68.52591 | 36164 ft | 394 kts | 194° |
| 2026-04-26 13:31 | 45.37912 | 68.51415 | 36168 ft | 394 kts | 194° |
| 2026-04-26 13:32 | 45.32526 | 68.50257 | 36169 ft | 394 kts | 194° |
| 2026-04-26 13:32 | 45.27097 | 68.49094 | 36172 ft | 395 kts | 194° |
| 2026-04-26 13:33 | 45.21659 | 68.47936 | 36172 ft | 395 kts | 194° |
| 2026-04-26 13:33 | 45.16260 | 68.46775 | 36173 ft | 395 kts | 194° |
| 2026-04-26 13:34 | 45.10825 | 68.45598 | 36173 ft | 396 kts | 194° |
| 2026-04-26 13:34 | 45.05377 | 68.44430 | 36170 ft | 396 kts | 194° |
| 2026-04-26 13:35 | 44.99925 | 68.43273 | 36171 ft | 396 kts | 194° |
| 2026-04-26 13:35 | 44.94467 | 68.42124 | 36170 ft | 396 kts | 194° |
| 2026-04-26 13:36 | 44.89042 | 68.40971 | 36170 ft | 397 kts | 194° |
| 2026-04-26 13:36 | 44.83575 | 68.39801 | 36169 ft | 398 kts | 194° |
| 2026-04-26 13:37 | 44.78103 | 68.38641 | 36167 ft | 398 kts | 193° |
| 2026-04-26 13:37 | 44.72631 | 68.37488 | 36165 ft | 398 kts | 193° |
| 2026-04-26 13:38 | 44.67148 | 68.36335 | 36160 ft | 398 kts | 193° |
| 2026-04-26 13:38 | 44.61701 | 68.35196 | 36158 ft | 399 kts | 193° |
| 2026-04-26 13:39 | 44.56209 | 68.34052 | 36156 ft | 399 kts | 193° |
| 2026-04-26 13:39 | 44.50714 | 68.32907 | 36155 ft | 399 kts | 193° |
| 2026-04-26 13:40 | 44.45217 | 68.31759 | 36153 ft | 399 kts | 193° |
| 2026-04-26 13:40 | 44.39748 | 68.30607 | 36252 ft | 402 kts | 193° |
| 2026-04-26 13:40 | 44.36981 | 68.30028 | 36398 ft | 402 kts | 193° |
| 2026-04-26 13:41 | 44.34214 | 68.29448 | 36566 ft | 402 kts | 193° |
| 2026-04-26 13:41 | 44.31443 | 68.28870 | 36700 ft | 403 kts | 193° |
| 2026-04-26 13:41 | 44.28664 | 68.28292 | 36832 ft | 404 kts | 193° |
| 2026-04-26 13:41 | 44.25888 | 68.27718 | 36956 ft | 404 kts | 193° |
| 2026-04-26 13:42 | 44.23112 | 68.27146 | 37113 ft | 403 kts | 193° |
| 2026-04-26 13:42 | 44.17573 | 68.26005 | 37147 ft | 408 kts | 193° |
| 2026-04-26 13:43 | 44.11850 | 68.25608 | 37148 ft | 420 kts | 180° |
| 2026-04-26 13:43 | 44.06001 | 68.26401 | 37145 ft | 424 kts | 180° |
| 2026-04-26 13:44 | 44.00111 | 68.27226 | 37147 ft | 426 kts | 179° |
| 2026-04-26 13:44 | 43.94200 | 68.28045 | 37147 ft | 428 kts | 180° |
| 2026-04-26 13:45 | 43.88310 | 68.28844 | 37148 ft | 428 kts | 180° |
| 2026-04-26 13:45 | 43.82373 | 68.29639 | 37153 ft | 429 kts | 180° |
| 2026-04-26 13:46 | 43.76432 | 68.30435 | 37154 ft | 429 kts | 180° |
| 2026-04-26 13:46 | 43.70495 | 68.31233 | 37149 ft | 428 kts | 180° |
| 2026-04-26 13:47 | 43.64602 | 68.32024 | 37145 ft | 428 kts | 180° |
| 2026-04-26 13:47 | 43.58662 | 68.32829 | 37142 ft | 429 kts | 180° |
| 2026-04-26 13:48 | 43.52720 | 68.33627 | 37141 ft | 429 kts | 180° |
| 2026-04-26 13:48 | 43.46778 | 68.34426 | 37142 ft | 429 kts | 180° |
| 2026-04-26 13:49 | 43.40871 | 68.35217 | 37143 ft | 429 kts | 180° |
| 2026-04-26 13:49 | 43.34924 | 68.36008 | 37143 ft | 429 kts | 180° |
| 2026-04-26 13:50 | 43.28974 | 68.36828 | 37139 ft | 431 kts | 178° |
| 2026-04-26 13:50 | 43.23029 | 68.38086 | 37135 ft | 434 kts | 175° |
| 2026-04-26 13:51 | 43.17091 | 68.39602 | 37135 ft | 434 kts | 175° |
| 2026-04-26 13:51 | 43.11187 | 68.41066 | 37138 ft | 434 kts | 175° |
| 2026-04-26 13:52 | 43.05240 | 68.42449 | 37140 ft | 433 kts | 176° |
| 2026-04-26 13:52 | 42.99297 | 68.43807 | 37140 ft | 433 kts | 176° |
| 2026-04-26 13:53 | 42.93344 | 68.45169 | 37140 ft | 434 kts | 175° |
| 2026-04-26 13:53 | 42.87431 | 68.46530 | 37140 ft | 433 kts | 176° |
| 2026-04-26 13:54 | 42.81483 | 68.47893 | 37132 ft | 434 kts | 176° |
| 2026-04-26 13:54 | 42.75530 | 68.49255 | 37132 ft | 434 kts | 176° |
| 2026-04-26 13:55 | 42.67603 | 68.51072 | 37131 ft | 434 kts | 176° |
| 2026-04-26 13:56 | 42.57694 | 68.53329 | 37131 ft | 435 kts | 175° |
| 2026-04-26 13:56 | 42.51727 | 68.54687 | 37131 ft | 435 kts | 175° |
| 2026-04-26 13:57 | 42.45753 | 68.56046 | 37132 ft | 435 kts | 175° |
| 2026-04-26 13:57 | 42.39821 | 68.57394 | 37137 ft | 435 kts | 175° |
| 2026-04-26 13:58 | 42.33847 | 68.58747 | 37137 ft | 435 kts | 175° |
| 2026-04-26 13:58 | 42.27871 | 68.60100 | 37139 ft | 435 kts | 176° |
| 2026-04-26 13:59 | 42.21895 | 68.61443 | 37139 ft | 435 kts | 175° |
| 2026-04-26 13:59 | 42.15921 | 68.62787 | 37139 ft | 435 kts | 176° |
| 2026-04-26 14:00 | 42.03999 | 68.65459 | 37141 ft | 435 kts | 175° |
| 2026-04-26 14:01 | 41.98022 | 68.66798 | 37141 ft | 435 kts | 176° |
| 2026-04-26 14:01 | 41.92042 | 68.68127 | 37132 ft | 436 kts | 176° |
| 2026-04-26 14:02 | 41.86087 | 68.69453 | 37135 ft | 437 kts | 176° |
| 2026-04-26 14:02 | 41.80090 | 68.70790 | 37139 ft | 437 kts | 176° |
| 2026-04-26 14:03 | 41.74089 | 68.72124 | 37139 ft | 437 kts | 176° |
| 2026-04-26 14:03 | 41.68086 | 68.73451 | 37141 ft | 437 kts | 176° |
| 2026-04-26 14:04 | 41.62082 | 68.74774 | 37143 ft | 437 kts | 176° |
| 2026-04-26 14:04 | 41.56115 | 68.76094 | 37144 ft | 438 kts | 176° |
| 2026-04-26 14:05 | 41.50105 | 68.77422 | 37144 ft | 438 kts | 176° |
| 2026-04-26 14:05 | 41.44090 | 68.78739 | 37143 ft | 438 kts | 176° |
| 2026-04-26 14:06 | 41.38075 | 68.80033 | 37144 ft | 438 kts | 178° |
| 2026-04-26 14:06 | 41.32088 | 68.80911 | 37143 ft | 435 kts | 181° |
| 2026-04-26 14:07 | 41.26060 | 68.81467 | 37146 ft | 434 kts | 182° |
| 2026-04-26 14:07 | 41.20031 | 68.82034 | 37148 ft | 435 kts | 181° |
| 2026-04-26 14:08 | 41.14003 | 68.82694 | 37148 ft | 435 kts | 181° |
| 2026-04-26 14:08 | 41.07979 | 68.83389 | 37147 ft | 435 kts | 181° |
| 2026-04-26 14:09 | 41.01993 | 68.84073 | 37139 ft | 434 kts | 181° |
| 2026-04-26 14:09 | 40.95973 | 68.84740 | 37141 ft | 434 kts | 181° |
| 2026-04-26 14:10 | 40.89947 | 68.85398 | 37143 ft | 434 kts | 181° |
| 2026-04-26 14:10 | 40.83922 | 68.86069 | 37144 ft | 434 kts | 182° |
| 2026-04-26 14:11 | 40.74933 | 68.87061 | 37145 ft | 434 kts | 182° |
| 2026-04-26 14:11 | 40.68910 | 68.87711 | 37147 ft | 434 kts | 182° |
| 2026-04-26 14:12 | 40.62892 | 68.88373 | 37149 ft | 434 kts | 182° |
| 2026-04-26 14:12 | 40.56873 | 68.89037 | 37146 ft | 434 kts | 182° |
| 2026-04-26 14:13 | 40.47875 | 68.90012 | 37147 ft | 434 kts | 182° |
| 2026-04-26 14:14 | 40.41852 | 68.90667 | 37149 ft | 435 kts | 182° |
| 2026-04-26 14:14 | 40.35829 | 68.91331 | 37149 ft | 434 kts | 182° |
| 2026-04-26 14:15 | 40.29849 | 68.91988 | 37147 ft | 434 kts | 182° |
| 2026-04-26 14:15 | 40.23830 | 68.92638 | 37140 ft | 434 kts | 182° |
| 2026-04-26 14:16 | 40.17814 | 68.93282 | 37139 ft | 434 kts | 182° |
| 2026-04-26 14:16 | 40.11800 | 68.93939 | 37133 ft | 433 kts | 182° |
| 2026-04-26 14:17 | 40.05790 | 68.94505 | 37127 ft | 429 kts | 188° |
| 2026-04-26 14:17 | 39.99908 | 68.94044 | 37133 ft | 426 kts | 191° |
| 2026-04-26 14:18 | 39.93989 | 68.93532 | 37132 ft | 426 kts | 191° |
| 2026-04-26 14:18 | 39.88067 | 68.93028 | 37135 ft | 427 kts | 191° |
| 2026-04-26 14:19 | 39.82131 | 68.92529 | 36761 ft | 427 kts | 191° |
| 2026-04-26 14:19 | 39.79207 | 68.92290 | 36294 ft | 426 kts | 191° |
| 2026-04-26 14:19 | 39.76249 | 68.92044 | 35741 ft | 427 kts | 191° |
| 2026-04-26 14:19 | 39.73278 | 68.91790 | 35248 ft | 430 kts | 190° |
| 2026-04-26 14:20 | 39.70281 | 68.91532 | 34731 ft | 433 kts | 190° |
| 2026-04-26 14:20 | 39.67256 | 68.91278 | 34219 ft | 437 kts | 190° |
| 2026-04-26 14:20 | 39.64214 | 68.91025 | 33657 ft | 439 kts | 189° |
| 2026-04-26 14:20 | 39.61159 | 68.90774 | 33129 ft | 442 kts | 189° |
| 2026-04-26 14:21 | 39.58073 | 68.90520 | 32564 ft | 445 kts | 189° |
| 2026-04-26 14:21 | 39.55014 | 68.90266 | 31999 ft | 448 kts | 189° |
| 2026-04-26 14:21 | 39.51898 | 68.89998 | 31434 ft | 451 kts | 188° |
| 2026-04-26 14:21 | 39.48756 | 68.89719 | 30841 ft | 454 kts | 188° |
| 2026-04-26 14:22 | 39.45596 | 68.89430 | 30271 ft | 457 kts | 188° |
| 2026-04-26 14:22 | 39.42408 | 68.89135 | 29695 ft | 461 kts | 188° |
| 2026-04-26 14:22 | 39.39201 | 68.88845 | 29137 ft | 463 kts | 188° |
| 2026-04-26 14:22 | 39.35975 | 68.88557 | 28578 ft | 466 kts | 188° |
| 2026-04-26 14:23 | 39.32729 | 68.88272 | 28016 ft | 468 kts | 187° |
| 2026-04-26 14:23 | 39.29470 | 68.87999 | 27441 ft | 471 kts | 187° |
| 2026-04-26 14:23 | 39.26231 | 68.87745 | 26871 ft | 473 kts | 186° |
| 2026-04-26 14:23 | 39.22938 | 68.87497 | 26279 ft | 473 kts | 186° |
| 2026-04-26 14:24 | 39.19660 | 68.87257 | 25672 ft | 471 kts | 186° |
| 2026-04-26 14:24 | 39.16399 | 68.87015 | 25055 ft | 469 kts | 186° |
| 2026-04-26 14:24 | 39.13155 | 68.86775 | 24429 ft | 465 kts | 185° |
| 2026-04-26 14:24 | 39.09938 | 68.86528 | 23814 ft | 461 kts | 186° |
| 2026-04-26 14:25 | 39.06746 | 68.86283 | 23162 ft | 455 kts | 185° |
| 2026-04-26 14:25 | 39.03588 | 68.86048 | 22537 ft | 453 kts | 185° |
| 2026-04-26 14:25 | 39.00491 | 68.85820 | 21951 ft | 450 kts | 185° |
| 2026-04-26 14:25 | 38.97384 | 68.85582 | 21371 ft | 445 kts | 185° |
| 2026-04-26 14:26 | 38.94317 | 68.85339 | 20785 ft | 442 kts | 185° |
| 2026-04-26 14:26 | 38.91254 | 68.85098 | 20210 ft | 437 kts | 184° |
| 2026-04-26 14:26 | 38.88231 | 68.84864 | 19646 ft | 433 kts | 184° |
| 2026-04-26 14:26 | 38.85235 | 68.84636 | 19100 ft | 429 kts | 184° |
| 2026-04-26 14:27 | 38.82260 | 68.84378 | 18553 ft | 426 kts | 185° |
| 2026-04-26 14:27 | 38.79320 | 68.84041 | 18004 ft | 422 kts | 186° |
| 2026-04-26 14:27 | 38.76410 | 68.83654 | 17490 ft | 419 kts | 186° |
| 2026-04-26 14:27 | 38.73565 | 68.83255 | 16987 ft | 416 kts | 186° |
| 2026-04-26 14:28 | 38.70697 | 68.82860 | 16476 ft | 413 kts | 186° |
| 2026-04-26 14:28 | 38.67845 | 68.82474 | 15978 ft | 411 kts | 186° |
| 2026-04-26 14:28 | 38.65015 | 68.82097 | 15482 ft | 408 kts | 187° |
| 2026-04-26 14:28 | 38.62264 | 68.81282 | 14986 ft | 405 kts | 197° |
| 2026-04-26 14:29 | 38.59598 | 68.80217 | 14679 ft | 395 kts | 198° |
| 2026-04-26 14:29 | 38.57036 | 68.79169 | 14550 ft | 380 kts | 198° |
| 2026-04-26 14:29 | 38.54602 | 68.78160 | 14423 ft | 365 kts | 198° |
| 2026-04-26 14:29 | 38.52231 | 68.77174 | 14297 ft | 352 kts | 198° |
| 2026-04-26 14:30 | 38.49947 | 68.76223 | 14169 ft | 339 kts | 199° |
| 2026-04-26 14:30 | 38.47901 | 68.74874 | 13665 ft | 327 kts | 219° |
| 2026-04-26 14:30 | 38.46439 | 68.72706 | 12956 ft | 323 kts | 241° |
| 2026-04-26 14:30 | 38.45730 | 68.70018 | 12207 ft | 321 kts | 262° |
| 2026-04-26 14:31 | 38.45679 | 68.67184 | 11425 ft | 319 kts | 269° |
| 2026-04-26 14:31 | 38.45694 | 68.64346 | 10782 ft | 321 kts | 269° |
| 2026-04-26 14:31 | 38.45700 | 68.61621 | 10638 ft | 310 kts | 269° |
| 2026-04-26 14:31 | 38.45702 | 68.58913 | 10338 ft | 304 kts | 269° |
| 2026-04-26 14:32 | 38.45704 | 68.56170 | 9745 ft | 310 kts | 269° |
| 2026-04-26 14:32 | 38.45728 | 68.53456 | 9549 ft | 301 kts | 275° |
| 2026-04-26 14:32 | 38.46371 | 68.50995 | 9402 ft | 291 kts | 304° |
| 2026-04-26 14:32 | 38.47856 | 68.49327 | 9025 ft | 288 kts | 334° |
| 2026-04-26 14:33 | 38.49842 | 68.48805 | 8236 ft | 301 kts | 4° |
| 2026-04-26 14:33 | 38.51867 | 68.49513 | 7414 ft | 304 kts | 29° |
| 2026-04-26 14:33 | 38.53447 | 68.51258 | 6612 ft | 303 kts | 54° |
| 2026-04-26 14:33 | 38.54292 | 68.53654 | 5819 ft | 301 kts | 79° |
| 2026-04-26 14:34 | 38.54415 | 68.56306 | 5010 ft | 299 kts | 90° |
| 2026-04-26 14:34 | 38.54400 | 68.58951 | 4272 ft | 296 kts | 90° |
| 2026-04-26 14:34 | 38.54392 | 68.61490 | 4173 ft | 271 kts | 90° |
| 2026-04-26 14:34 | 38.54394 | 68.63781 | 4337 ft | 247 kts | 90° |
| 2026-04-26 14:35 | 38.54394 | 68.65927 | 4402 ft | 237 kts | 90° |
| 2026-04-26 14:35 | 38.54392 | 68.67963 | 4403 ft | 221 kts | 90° |
| 2026-04-26 14:35 | 38.54389 | 68.69857 | 4240 ft | 207 kts | 90° |
| 2026-04-26 14:35 | 38.54388 | 68.71638 | 3974 ft | 194 kts | 90° |
| 2026-04-26 14:36 | 38.54386 | 68.73316 | 3729 ft | 185 kts | 90° |
| 2026-04-26 14:36 | 38.54384 | 68.74881 | 3515 ft | 171 kts | 90° |
| 2026-04-26 14:36 | 38.54382 | 68.76335 | 3284 ft | 160 kts | 90° |
| 2026-04-26 14:36 | 38.54381 | 68.77729 | 3079 ft | 155 kts | 90° |
| 2026-04-26 14:37 | 38.54375 | 68.79095 | 2878 ft | 152 kts | 91° |
| 2026-04-26 14:37 | 38.54378 | 68.80445 | 2658 ft | 153 kts | 90° |
| 2026-04-26 14:37 | 38.54376 | 68.81703 | 2582 ft | 122 kts | 90° |
| 2026-04-26 14:37 | 38.54370 | 68.82567 | 2575 ft | 73 kts | 90° |
| 2026-04-26 14:38 | 38.54371 | 68.82998 | 2577 ft | 33 kts | 90° |
| 2026-04-26 14:38 | 38.54378 | 68.83252 | 2581 ft | 15 kts | 61° |
| 2026-04-26 14:38 | 38.54476 | 68.83289 | 2577 ft | 16 kts | 0° |
| 2026-04-26 14:38 | 38.54544 | 68.83288 | 2574 ft | 8 kts | 359° |
| 2026-04-26 14:39 | 38.54596 | 68.83287 | 2582 ft | 7 kts | 359° |
| 2026-04-26 14:39 | 38.54638 | 68.83286 | 2582 ft | 5 kts | 359° |
| 2026-04-26 14:39 | 38.54669 | 68.83280 | 2576 ft | 5 kts | 334° |
| 2026-04-26 14:39 | 38.54685 | 68.83200 | 2576 ft | 13 kts | 273° |
| 2026-04-26 14:40 | 38.54686 | 68.83085 | 2579 ft | 13 kts | 270° |
| 2026-04-26 14:40 | 38.54686 | 68.82965 | 2580 ft | 14 kts | 270° |
| 2026-04-26 14:40 | 38.54686 | 68.82837 | 2576 ft | 15 kts | 270° |
| 2026-04-26 14:40 | 38.54687 | 68.82697 | 2578 ft | 16 kts | 270° |
| 2026-04-26 14:41 | 38.54688 | 68.82544 | 2577 ft | 18 kts | 270° |
| 2026-04-26 14:41 | 38.54698 | 68.82384 | 2582 ft | 18 kts | 273° |
| 2026-04-26 14:41 | 38.54699 | 68.82214 | 2582 ft | 20 kts | 270° |
| 2026-04-26 14:41 | 38.54699 | 68.82037 | 2582 ft | 18 kts | 271° |
| 2026-04-26 14:42 | 38.54700 | 68.81889 | 2577 ft | 16 kts | 271° |
| 2026-04-26 14:42 | 38.54702 | 68.81738 | 2579 ft | 18 kts | 270° |
| 2026-04-26 14:42 | 38.54703 | 68.81582 | 2578 ft | 16 kts | 271° |
| 2026-04-26 14:42 | 38.54775 | 68.81514 | 2576 ft | 11 kts | 3° |
| 2026-04-26 14:43 | 38.54805 | 68.81514 | 2582 ft | 0 kts | 359° |